createdAt,value
2023-02-13T00:00:32.875Z,13.00
2023-02-13T00:03:00.089Z,8.75
2023-02-13T00:05:27.117Z,10.00
2023-02-13T00:07:54.006Z,17.33
2023-02-13T00:10:21.077Z,11.00
2023-02-13T00:12:48.048Z,12.75
2023-02-13T00:15:14.979Z,13.67
2023-02-13T00:17:41.891Z,13.67
2023-02-13T00:20:10.629Z,11.00
2023-02-13T00:22:38.567Z,14.67
2023-02-13T00:25:06.912Z,18.00
2023-02-13T00:27:34.460Z,13.00
2023-02-13T00:30:01.476Z,17.00
2023-02-13T00:32:28.413Z,14.33
2023-02-13T00:34:56.732Z,13.00
2023-02-13T00:37:23.673Z,11.33
2023-02-13T00:39:50.578Z,9.00
2023-02-13T00:42:17.544Z,10.00
2023-02-13T00:44:44.454Z,9.75
2023-02-13T00:47:14.992Z,6.75
2023-02-13T00:49:42.132Z,9.00
2023-02-13T00:52:09.065Z,7.75
2023-02-13T00:54:36.070Z,9.25
2023-02-13T00:57:04.002Z,12.25
2023-02-13T00:59:30.925Z,6.75
2023-02-13T01:01:57.914Z,6.00
2023-02-13T01:04:24.869Z,7.75
2023-02-13T01:06:51.821Z,7.50
2023-02-13T01:09:18.736Z,9.00
2023-02-13T01:11:45.653Z,8.00
2023-02-13T01:14:12.615Z,9.75
2023-02-13T01:16:39.564Z,10.75
2023-02-13T01:19:06.453Z,7.00
2023-02-13T01:21:33.426Z,6.67
2023-02-13T01:24:04.298Z,5.75
2023-02-13T01:26:31.531Z,5.25
2023-02-13T01:28:58.478Z,5.50
2023-02-13T01:31:25.978Z,4.25
2023-02-13T01:33:52.945Z,9.00
2023-02-13T01:36:19.868Z,9.50
2023-02-13T01:38:46.783Z,6.75
2023-02-13T01:41:15.806Z,9.50
2023-02-13T01:43:50.407Z,9.00
2023-02-13T01:46:22.309Z,11.25
2023-02-13T01:48:51.012Z,6.75
2023-02-13T01:51:22.634Z,6.25
2023-02-13T01:54:12.265Z,6.00
2023-02-13T01:56:50.371Z,5.50
2023-02-13T01:59:22.432Z,10.00
2023-02-13T02:01:49.875Z,11.50
2023-02-13T02:04:29.125Z,6.00
2023-02-13T02:07:18.886Z,7.25
2023-02-13T02:10:07.969Z,9.50
2023-02-13T02:13:06.358Z,10.50
2023-02-13T02:15:55.653Z,10.50
2023-02-13T02:18:44.826Z,7.00
2023-02-13T02:21:43.515Z,5.25
2023-02-13T02:24:26.787Z,3.50
2023-02-13T02:27:28.128Z,2.75
2023-02-13T02:30:10.198Z,8.25
2023-02-13T02:32:37.043Z,7.25
2023-02-13T02:35:19.066Z,3.00
2023-02-13T02:38:06.162Z,7.75
2023-02-13T02:41:04.450Z,8.75
2023-02-13T02:43:59.236Z,6.00
2023-02-13T02:46:39.794Z,9.75
2023-02-13T02:49:34.399Z,9.25
2023-02-13T02:52:08.635Z,5.25
2023-02-13T02:54:57.216Z,10.25
2023-02-13T02:57:48.363Z,9.75
2023-02-13T03:00:37.599Z,10.25
2023-02-13T03:03:36.847Z,7.00
2023-02-13T03:06:14.153Z,8.00
2023-02-13T03:09:09.943Z,3.25
2023-02-13T03:11:57.071Z,9.00
2023-02-13T03:14:27.745Z,10.00
2023-02-13T03:17:15.352Z,9.00
2023-02-13T03:20:13.051Z,10.00
2023-02-13T03:22:55.051Z,10.50
2023-02-13T03:25:34.791Z,11.00
2023-02-13T03:28:23.151Z,10.75
2023-02-13T03:31:10.944Z,18.00
2023-02-13T03:33:47.154Z,19.33
2023-02-13T03:36:35.665Z,25.33
2023-02-13T03:39:12.438Z,22.00
2023-02-13T03:41:45.984Z,24.33
2023-02-13T03:44:39.189Z,18.67
2023-02-13T03:47:09.521Z,17.00
2023-02-13T03:50:05.584Z,18.00
2023-02-13T03:56:14.325Z,11.00
2023-02-13T03:59:26.422Z,27.00
2023-02-13T04:02:47.826Z,23.00
2023-02-13T04:09:13.769Z,18.00
2023-02-13T04:12:29.057Z,17.00
2023-02-13T11:27:03.801Z,12.00
2023-02-13T18:32:53.849Z,23.67
2023-02-13T18:35:35.912Z,25.00
2023-02-13T18:55:31.342Z,28.67
2023-02-13T19:06:59.896Z,29.67
2023-02-13T20:03:15.137Z,25.33
2023-02-13T20:18:33.280Z,30.33
2023-02-13T20:41:24.444Z,24.67
2023-02-13T20:43:51.820Z,28.00
2023-02-13T20:46:19.430Z,18.50
2023-02-13T20:48:47.747Z,24.75
2023-02-13T20:51:17.120Z,20.00
2023-02-13T20:53:45.074Z,24.67
2023-02-13T20:56:13.807Z,15.50
2023-02-13T20:58:42.231Z,15.75
2023-02-13T21:01:23.729Z,13.00
2023-02-13T21:03:53.927Z,13.00
2023-02-13T21:06:21.974Z,14.00
2023-02-13T21:08:49.689Z,12.25
2023-02-13T21:11:17.369Z,15.00
2023-02-13T21:13:44.509Z,14.25
2023-02-13T21:16:15.429Z,11.50
2023-02-13T21:18:43.465Z,13.50
2023-02-13T21:21:11.700Z,10.00
2023-02-13T21:23:39.431Z,12.00
2023-02-13T21:26:11.843Z,11.00
2023-02-13T21:28:40.334Z,7.25
2023-02-13T21:31:09.951Z,11.00
2023-02-13T21:33:36.917Z,10.00
2023-02-13T21:36:06.307Z,7.00
2023-02-13T21:38:34.783Z,7.25
2023-02-13T21:41:10.137Z,7.00
2023-02-13T21:43:40.367Z,6.00
2023-02-13T21:46:08.441Z,7.00
2023-02-13T21:48:35.610Z,6.75
2023-02-13T21:51:10.178Z,6.25
2023-02-13T21:53:37.412Z,6.50
2023-02-13T21:56:06.299Z,7.50
2023-02-13T21:58:34.858Z,5.75
2023-02-13T22:01:02.927Z,9.00
2023-02-13T22:03:29.900Z,9.00
2023-02-13T22:05:56.832Z,7.50
2023-02-13T22:08:23.714Z,7.50
2023-02-13T22:10:58.617Z,7.25
2023-02-13T22:13:26.600Z,7.50
2023-02-13T22:16:08.194Z,9.50
2023-02-13T22:18:37.481Z,6.25
2023-02-13T22:21:16.105Z,11.00
2023-02-13T22:23:44.891Z,5.50
2023-02-13T22:26:19.421Z,6.00
2023-02-13T22:28:46.369Z,6.00
2023-02-13T22:31:14.198Z,6.50
2023-02-13T22:33:42.764Z,8.25
2023-02-13T22:36:09.936Z,6.25
2023-02-13T22:38:39.212Z,10.25
2023-02-13T22:41:24.810Z,12.50
2023-02-13T22:43:52.323Z,11.50
2023-02-13T22:46:25.402Z,5.50
2023-02-13T22:48:53.772Z,12.75
2023-02-13T22:51:23.866Z,10.50
2023-02-13T22:53:54.375Z,19.75
2023-02-13T22:56:22.304Z,11.50
2023-02-13T22:58:49.347Z,12.50
2023-02-13T23:01:19.353Z,10.00
2023-02-13T23:03:46.993Z,18.75
2023-02-13T23:06:15.489Z,30.67
2023-02-13T23:08:43.484Z,33.33
2023-02-13T23:11:35.695Z,31.00
2023-02-13T23:14:03.641Z,27.67
2023-02-13T23:16:50.934Z,23.00
2023-02-13T23:19:17.972Z,16.00
2023-02-13T23:21:44.934Z,8.50
2023-02-13T23:24:11.857Z,12.50
2023-02-13T23:26:38.887Z,15.00
2023-02-13T23:29:05.827Z,14.00
2023-02-13T23:31:32.822Z,20.25
2023-02-13T23:33:59.828Z,14.50
2023-02-13T23:36:26.813Z,19.00
2023-02-13T23:38:53.734Z,33.00
2023-02-13T23:41:21.127Z,0.00
2023-02-13T23:43:48.091Z,23.00
2023-02-13T23:46:15.031Z,27.00
2023-02-13T23:48:41.993Z,24.67
2023-02-13T23:51:08.896Z,25.33
2023-02-13T23:53:36.762Z,28.33
2023-02-13T23:56:05.348Z,25.00
2023-02-13T23:58:32.308Z,23.33
